Time;durP1;ratioP1;P1;durP2;ratioP2;P2;SDS_P1;SDS_P2;PMS_P1;PMS_P2;Temp;Humidity;BMP_temperature;BMP_pressure;BME280_temperature;BME280_humidity;BME280_pressure;Samples;Min_cycle;Max_cycle;Signal;HPM_P1;HPM_P2
2022/08/21 00:01:26;;;;;;;2.55;1.17;;;20.20;96.40;;;;;;5071675;28;21626;-72
2022/08/21 00:03:52;;;;;;;2.17;0.80;;;20.10;97.50;;;;;;5068463;28;20478;-72
2022/08/21 00:06:19;;;;;;;2.85;1.02;;;20.00;98.00;;;;;;5052905;28;20069;-72
2022/08/21 00:08:44;;;;;;;4.72;0.90;;;20.00;97.90;;;;;;5057910;28;20065;-73
2022/08/21 00:11:10;;;;;;;1.75;0.93;;;19.60;98.20;;;;;;5066023;28;20071;-73
2022/08/21 00:13:37;;;;;;;2.55;0.73;;;19.40;98.70;;;;;;5062400;28;20024;-73
2022/08/21 00:16:03;;;;;;;3.00;0.85;;;19.10;99.50;;;;;;5072594;28;20032;-73
2022/08/21 00:18:29;;;;;;;1.92;0.60;;;19.10;99.30;;;;;;5059378;28;20056;-73
2022/08/21 00:20:54;;;;;;;1.17;0.60;;;19.10;98.50;;;;;;5058718;28;20474;-73
2022/08/21 00:23:21;;;;;;;1.80;0.57;;;19.20;97.60;;;;;;5068717;28;20082;-73
2022/08/21 00:25:47;;;;;;;1.55;0.73;;;19.30;97.70;;;;;;5068855;28;20477;-73
2022/08/21 00:28:13;;;;;;;1.33;0.57;;;19.50;97.10;;;;;;5063907;28;20040;-72
2022/08/21 00:30:39;;;;;;;1.45;0.70;;;19.60;96.90;;;;;;5066273;28;20040;-73
2022/08/21 00:33:08;;;;;;;2.10;0.47;;;19.60;96.70;;;;;;5054732;28;20138;-72
2022/08/21 00:35:37;;;;;;;0.82;0.50;;;19.40;97.10;;;;;;5056757;28;20025;-73
2022/08/21 00:38:05;;;;;;;0.95;0.55;;;19.50;96.90;;;;;;5056476;28;20039;-72
2022/08/21 00:40:43;;;;;;;1.15;0.50;;;19.60;96.80;;;;;;5062822;28;20470;-72
2022/08/21 00:43:10;;;;;;;1.58;0.45;;;19.70;96.70;;;;;;5067808;28;20650;-72
2022/08/21 00:45:37;;;;;;;2.63;0.68;;;19.70;96.80;;;;;;5068159;28;20024;-73
2022/08/21 00:48:03;;;;;;;2.33;0.80;;;19.80;96.50;;;;;;5068370;28;20159;-73
2022/08/21 00:50:33;;;;;;;2.00;0.68;;;20.00;96.30;;;;;;5052080;28;20037;-72
2022/08/21 00:53:01;;;;;;;3.45;0.90;;;20.00;96.40;;;;;;5054805;28;20032;-73
2022/08/21 00:55:29;;;;;;;1.42;0.60;;;20.00;96.20;;;;;;5072017;28;20389;-73
2022/08/21 00:57:59;;;;;;;1.38;0.60;;;20.00;96.40;;;;;;5069242;28;20039;-72
2022/08/21 01:00:29;;;;;;;3.03;0.57;;;19.90;96.50;;;;;;5063831;28;20043;-72
2022/08/21 01:03:00;;;;;;;1.08;0.50;;;19.90;96.50;;;;;;5057118;28;20028;-72
2022/08/21 01:05:26;;;;;;;1.15;0.60;;;19.90;96.30;;;;;;5056244;28;20380;-72
2022/08/21 01:07:53;;;;;;;7.13;1.55;;;20.00;96.30;;;;;;5052144;28;20036;-72
2022/08/21 01:10:19;;;;;;;1.80;0.88;;;19.70;97.40;;;;;;5059922;28;20036;-72
2022/08/21 01:12:45;;;;;;;2.40;1.20;;;19.60;96.60;;;;;;5069417;28;20048;-72
2022/08/21 01:15:15;;;;;;;4.95;0.60;;;19.70;96.70;;;;;;5069919;28;20047;-72
2022/08/21 01:17:41;;;;;;;1.33;0.60;;;19.80;96.60;;;;;;5070261;28;20036;-72
2022/08/21 01:20:10;;;;;;;2.58;0.77;;;19.80;96.60;;;;;;5055441;28;20036;-73
2022/08/21 01:22:37;;;;;;;2.80;0.60;;;19.80;96.50;;;;;;5067252;28;20123;-72
2022/08/21 01:25:10;;;;;;;2.05;0.73;;;19.90;96.50;;;;;;5055855;28;20493;-72
2022/08/21 01:27:36;;;;;;;2.10;0.80;;;19.90;96.50;;;;;;5067145;28;20107;-72
2022/08/21 01:30:17;;;;;;;1.52;0.55;;;19.80;96.60;;;;;;5063949;28;20470;-73
2022/08/21 01:32:42;;;;;;;2.95;0.90;;;19.70;96.70;;;;;;5058919;28;20108;-72
2022/08/21 01:35:11;;;;;;;1.45;0.63;;;19.80;96.50;;;;;;5070788;28;20107;-72
2022/08/21 01:37:36;;;;;;;0.63;0.40;;;19.90;96.40;;;;;;5069982;28;20043;-72
2022/08/21 01:40:04;;;;;;;3.58;0.90;;;19.90;96.40;;;;;;5071768;28;20032;-73
2022/08/21 01:42:29;;;;;;;3.45;1.40;;;19.80;96.50;;;;;;5066628;28;20067;-72
2022/08/21 01:44:56;;;;;;;0.75;0.35;;;19.50;97.80;;;;;;5070736;28;20440;-73
2022/08/21 01:47:22;;;;;;;2.38;0.93;;;19.30;98.60;;;;;;5067828;28;20040;-72
2022/08/21 01:49:48;;;;;;;1.52;0.70;;;19.30;98.50;;;;;;5059078;28;20086;-73
2022/08/21 01:52:14;;;;;;;0.98;0.60;;;19.60;97.10;;;;;;5058262;28;20032;-73
2022/08/21 01:54:40;;;;;;;4.85;0.85;;;19.90;96.40;;;;;;5061163;28;20082;-73
2022/08/21 01:57:07;;;;;;;1.75;0.70;;;19.90;96.30;;;;;;5071101;28;20440;-72
2022/08/21 01:59:33;;;;;;;2.95;0.90;;;20.30;96.00;;;;;;5054728;28;20059;-72
2022/08/21 02:01:59;;;;;;;1.17;0.52;;;20.10;96.10;;;;;;5068914;28;20032;-73
2022/08/21 02:04:25;;;;;;;2.20;0.70;;;20.00;96.40;;;;;;5069120;28;20028;-72
2022/08/21 02:06:51;;;;;;;4.85;0.80;;;19.80;96.40;;;;;;5070171;28;20471;-72
2022/08/21 02:09:18;;;;;;;1.95;1.20;;;19.70;96.60;;;;;;5071023;28;20086;-72
2022/08/21 02:11:43;;;;;;;3.25;0.82;;;19.70;96.70;;;;;;5068880;28;20478;-72
2022/08/21 02:14:14;;;;;;;2.97;0.60;;;19.60;96.70;;;;;;5063080;28;20032;-72
2022/08/21 02:16:42;;;;;;;3.58;0.70;;;19.50;96.80;;;;;;5071431;28;20025;-72
2022/08/21 02:19:09;;;;;;;2.63;0.50;;;19.60;96.60;;;;;;5053167;28;20037;-72
2022/08/21 02:21:35;;;;;;;2.13;0.90;;;19.50;97.00;;;;;;5060646;28;20426;-72
2022/08/21 02:24:01;;;;;;;2.53;0.90;;;19.50;97.00;;;;;;5053532;28;20115;-72
2022/08/21 02:26:26;;;;;;;1.30;0.60;;;19.70;96.50;;;;;;5051054;28;20087;-73
2022/08/21 02:28:52;;;;;;;1.45;0.73;;;19.90;96.10;;;;;;5064243;28;20033;-73
2022/08/21 02:31:18;;;;;;;1.40;0.63;;;19.90;96.20;;;;;;5070190;28;20502;-73
2022/08/21 02:33:44;;;;;;;2.17;0.75;;;20.00;96.10;;;;;;5066998;28;20036;-73
2022/08/21 02:36:10;;;;;;;2.22;0.93;;;20.00;96.30;;;;;;5070808;28;20035;-72
2022/08/21 02:38:38;;;;;;;1.73;0.90;;;19.60;96.80;;;;;;5056740;28;20041;-72
2022/08/21 02:41:06;;;;;;;1.48;0.75;;;19.70;96.30;;;;;;5069113;28;20029;-72
2022/08/21 02:43:31;;;;;;;2.55;0.80;;;19.80;96.40;;;;;;5072780;28;20040;-72
2022/08/21 02:45:58;;;;;;;1.48;0.60;;;19.60;96.80;;;;;;5074112;28;20036;-72
2022/08/21 02:48:29;;;;;;;1.05;0.50;;;19.30;96.90;;;;;;5069929;28;20040;-73
2022/08/21 02:50:58;;;;;;;1.80;0.73;;;19.20;97.30;;;;;;5072517;28;20044;-72
2022/08/21 02:53:26;;;;;;;0.88;0.50;;;19.00;97.30;;;;;;5062078;28;20064;-72
2022/08/21 02:55:52;;;;;;;1.30;0.45;;;19.00;97.60;;;;;;5053610;28;20107;-72
2022/08/21 02:58:23;;;;;;;2.30;0.60;;;18.80;97.80;;;;;;5067612;28;20109;-72
2022/08/21 03:00:49;;;;;;;1.52;0.63;;;18.70;97.90;;;;;;5074027;28;20039;-72
2022/08/21 03:03:15;;;;;;;4.05;0.85;;;18.40;98.50;;;;;;5065294;28;20029;-72
2022/08/21 03:05:42;;;;;;;1.42;0.70;;;18.40;98.20;;;;;;5064463;28;20421;-72
2022/08/21 03:08:11;;;;;;;1.70;1.02;;;18.60;97.90;;;;;;5066274;28;20050;-72
2022/08/21 03:10:42;;;;;;;1.40;0.57;;;18.60;97.90;;;;;;5066641;28;20037;-72
2022/08/21 03:13:09;;;;;;;1.20;0.47;;;18.50;98.20;;;;;;5067236;28;20086;-72
2022/08/21 03:15:35;;;;;;;1.35;0.40;;;18.40;98.30;;;;;;5069083;28;20048;-72
2022/08/21 03:18:03;;;;;;;1.00;0.43;;;18.60;98.00;;;;;;5061343;28;20028;-72
2022/08/21 03:20:30;;;;;;;3.70;0.80;;;18.60;98.00;;;;;;5047941;28;20619;-72
2022/08/21 03:22:56;;;;;;;3.55;1.00;;;18.80;97.70;;;;;;5058719;28;20095;-72
2022/08/21 03:25:23;;;;;;;4.10;0.70;;;18.80;97.80;;;;;;5059675;28;20191;-72
2022/08/21 03:27:49;;;;;;;1.75;0.77;;;18.90;97.70;;;;;;5054279;28;20025;-72
2022/08/21 03:30:18;;;;;;;0.90;0.52;;;18.90;97.60;;;;;;5065756;28;20597;-71
2022/08/21 03:32:44;;;;;;;1.60;0.60;;;18.80;98.20;;;;;;5050288;28;20029;-72
2022/08/21 03:35:10;;;;;;;2.65;0.80;;;18.80;97.90;;;;;;5056924;28;20021;-72
2022/08/21 03:37:36;;;;;;;3.75;0.80;;;18.80;98.00;;;;;;5062359;28;20576;-72
2022/08/21 03:40:07;;;;;;;1.45;0.70;;;18.60;98.50;;;;;;5048915;28;20429;-72
2022/08/21 03:42:33;;;;;;;3.25;0.80;;;18.60;98.20;;;;;;5034880;28;20032;-71
2022/08/21 03:44:59;;;;;;;2.97;0.90;;;18.50;98.30;;;;;;5052001;28;20356;-72
2022/08/21 03:47:24;;;;;;;2.58;1.05;;;18.60;98.30;;;;;;5055083;28;20514;-71
2022/08/21 03:49:50;;;;;;;2.15;1.23;;;18.90;97.80;;;;;;5049192;28;20086;-72
2022/08/21 03:52:16;;;;;;;2.03;1.05;;;18.60;98.50;;;;;;5051804;28;20385;-72
2022/08/21 03:54:43;;;;;;;2.08;1.00;;;18.70;98.40;;;;;;5056042;28;20442;-72
2022/08/21 03:57:10;;;;;;;2.67;1.08;;;18.80;97.80;;;;;;5050907;28;20049;-71
2022/08/21 03:59:37;;;;;;;1.30;0.63;;;18.80;98.00;;;;;;5055283;28;20085;-72
2022/08/21 04:02:04;;;;;;;1.70;0.70;;;18.60;98.30;;;;;;5058233;28;20037;-72
2022/08/21 04:04:31;;;;;;;1.15;0.73;;;18.60;98.40;;;;;;5054475;28;20094;-72
2022/08/21 04:06:57;;;;;;;0.85;0.60;;;18.60;98.30;;;;;;5048701;28;20028;-72
2022/08/21 04:09:24;;;;;;;1.65;0.70;;;18.70;98.10;;;;;;5058179;28;20036;-72
2022/08/21 04:11:49;;;;;;;2.33;1.00;;;18.70;98.00;;;;;;5062979;28;20071;-72
2022/08/21 04:14:15;;;;;;;2.17;1.05;;;19.20;97.20;;;;;;5060320;28;20064;-72
2022/08/21 04:16:42;;;;;;;1.52;0.70;;;19.40;96.80;;;;;;5045609;28;20549;-72
2022/08/21 04:19:09;;;;;;;2.17;0.85;;;19.50;96.70;;;;;;5050311;28;21051;-72
2022/08/21 04:21:37;;;;;;;1.60;0.82;;;19.30;96.80;;;;;;5046068;28;20086;-72
2022/08/21 04:24:07;;;;;;;1.20;0.80;;;19.30;96.70;;;;;;5052056;28;20032;-72
2022/08/21 04:26:34;;;;;;;1.95;0.57;;;19.50;96.50;;;;;;5056148;28;20111;-72
2022/08/21 04:29:00;;;;;;;3.17;1.20;;;19.60;96.40;;;;;;5058495;28;20043;-71
2022/08/21 04:31:27;;;;;;;2.67;1.15;;;19.80;96.00;;;;;;5062167;28;20044;-72
2022/08/21 04:33:53;;;;;;;3.10;0.90;;;19.50;96.60;;;;;;5061477;28;20021;-72
2022/08/21 04:36:19;;;;;;;1.98;0.88;;;19.30;96.80;;;;;;5062613;28;20028;-72
2022/08/21 04:38:44;;;;;;;1.48;0.73;;;19.30;96.90;;;;;;5047292;28;20029;-73
2022/08/21 04:41:11;;;;;;;2.83;1.00;;;19.30;96.90;;;;;;5064013;28;20039;-72
2022/08/21 04:43:38;;;;;;;1.05;0.57;;;19.40;96.70;;;;;;5046244;28;20040;-73
2022/08/21 04:46:05;;;;;;;2.95;0.80;;;19.40;96.60;;;;;;5063547;28;20032;-72
2022/08/21 04:48:32;;;;;;;3.38;0.90;;;19.30;96.70;;;;;;5059716;28;20028;-73
2022/08/21 04:51:18;;;;;;;1.25;0.70;;;19.20;96.90;;;;;;5047357;28;20033;-72
2022/08/21 04:54:20;;;;;;;1.67;0.65;;;19.10;97.20;;;;;;5052973;28;20073;-72
2022/08/21 04:57:03;;;;;;;3.63;0.80;;;18.90;97.50;;;;;;5001670;28;20099;-72
2022/08/21 04:59:35;;;;;;;2.90;0.68;;;18.80;97.50;;;;;;5063392;28;20020;-73
2022/08/21 05:02:02;;;;;;;1.45;0.50;;;19.20;97.00;;;;;;5063837;28;20033;-73
2022/08/21 05:04:31;;;;;;;1.77;0.80;;;18.90;97.60;;;;;;5047728;28;20036;-72
2022/08/21 05:07:01;;;;;;;5.50;1.10;;;18.70;97.80;;;;;;5063720;28;20046;-72
2022/08/21 05:09:31;;;;;;;1.85;0.90;;;18.90;97.30;;;;;;5063121;28;20147;-73
2022/08/21 05:11:57;;;;;;;4.53;0.80;;;19.00;97.10;;;;;;5064232;28;20116;-73
2022/08/21 05:14:24;;;;;;;3.58;0.68;;;18.80;97.70;;;;;;5061975;28;20402;-73
2022/08/21 05:16:50;;;;;;;0.98;0.40;;;18.50;98.40;;;;;;5064525;28;20051;-72
2022/08/21 05:19:16;;;;;;;1.30;0.50;;;18.60;98.10;;;;;;5059195;28;20058;-73
2022/08/21 05:21:44;;;;;;;1.13;0.40;;;18.70;97.80;;;;;;5063781;28;20178;-72
2022/08/21 05:24:10;;;;;;;1.77;0.80;;;18.60;98.10;;;;;;5056021;28;20025;-72
2022/08/21 05:26:36;;;;;;;0.65;0.40;;;18.50;98.40;;;;;;5056645;28;20108;-72
2022/08/21 05:29:03;;;;;;;2.00;0.60;;;18.50;98.30;;;;;;5056070;28;20111;-72
2022/08/21 05:31:28;;;;;;;1.45;0.80;;;18.50;98.20;;;;;;5048099;28;20048;-73
2022/08/21 05:33:54;;;;;;;1.55;0.57;;;18.80;97.60;;;;;;5061880;28;20020;-72
2022/08/21 05:36:20;;;;;;;0.90;0.40;;;19.00;97.50;;;;;;5057813;28;20024;-73
2022/08/21 05:38:46;;;;;;;0.80;0.50;;;18.90;97.90;;;;;;5062391;28;20029;-72
2022/08/21 05:41:12;;;;;;;3.88;0.65;;;18.60;98.20;;;;;;5062685;28;20068;-72
2022/08/21 05:43:37;;;;;;;0.93;0.40;;;18.60;98.30;;;;;;5053363;28;20033;-72
2022/08/21 05:46:04;;;;;;;4.07;0.95;;;18.80;97.80;;;;;;5047010;28;20029;-72
2022/08/21 05:48:31;;;;;;;1.38;0.60;;;18.60;98.40;;;;;;5048077;28;20036;-72
2022/08/21 05:50:57;;;;;;;2.40;0.68;;;18.40;98.80;;;;;;5046926;28;20048;-72
2022/08/21 05:53:24;;;;;;;0.90;0.45;;;18.40;98.70;;;;;;5051443;28;20029;-72
2022/08/21 05:55:50;;;;;;;1.65;0.52;;;18.60;98.20;;;;;;5046538;28;20125;-72
2022/08/21 05:58:18;;;;;;;1.13;0.52;;;18.70;98.30;;;;;;5054214;28;20993;-73
2022/08/21 06:00:46;;;;;;;0.93;0.40;;;18.90;97.60;;;;;;5066130;28;20028;-72
2022/08/21 06:03:16;;;;;;;1.48;0.70;;;19.00;97.80;;;;;;5041021;28;20414;-72
2022/08/21 06:05:42;;;;;;;2.50;0.73;;;19.20;97.00;;;;;;5047201;28;20029;-72
2022/08/21 06:08:08;;;;;;;3.00;0.52;;;19.40;97.00;;;;;;5064601;28;20378;-72
2022/08/21 06:10:34;;;;;;;1.95;1.17;;;19.20;97.70;;;;;;5066231;28;20051;-73
2022/08/21 06:12:59;;;;;;;2.50;0.60;;;19.30;97.40;;;;;;5064426;28;20028;-73
2022/08/21 06:15:25;;;;;;;1.67;0.50;;;19.50;96.50;;;;;;5046794;28;20055;-73
2022/08/21 06:17:53;;;;;;;1.67;0.82;;;19.60;96.70;;;;;;5054430;28;20029;-73
2022/08/21 06:20:19;;;;;;;1.35;0.52;;;19.70;96.80;;;;;;5050708;28;20044;-72
2022/08/21 06:22:44;;;;;;;1.23;0.47;;;19.60;96.60;;;;;;5051573;28;20029;-73
2022/08/21 06:25:10;;;;;;;2.72;0.73;;;19.90;96.00;;;;;;5055835;28;20029;-72
2022/08/21 06:27:36;;;;;;;1.80;0.65;;;20.00;96.20;;;;;;5059899;28;20104;-73
2022/08/21 06:30:03;;;;;;;2.95;0.63;;;19.90;96.50;;;;;;5050530;28;20043;-73
2022/08/21 06:32:29;;;;;;;2.03;0.80;;;20.10;96.80;;;;;;5063930;28;20536;-73
2022/08/21 06:34:54;;;;;;;2.28;0.60;;;20.20;96.10;;;;;;5068946;28;20056;-73
2022/08/21 06:37:20;;;;;;;1.73;0.75;;;20.60;96.20;;;;;;5065978;28;20119;-73
2022/08/21 06:39:46;;;;;;;1.88;0.43;;;20.90;94.90;;;;;;5069221;28;20046;-73
2022/08/21 06:42:16;;;;;;;1.45;0.80;;;21.00;95.10;;;;;;5055324;28;20036;-73
2022/08/21 06:44:42;;;;;;;1.15;0.50;;;21.20;95.60;;;;;;5067743;28;20028;-73
2022/08/21 06:47:08;;;;;;;0.80;0.35;;;21.30;95.00;;;;;;5067183;28;20033;-73
2022/08/21 06:49:34;;;;;;;0.65;0.40;;;21.30;94.40;;;;;;5063664;28;20040;-73
2022/08/21 06:52:00;;;;;;;1.02;0.40;;;21.40;94.10;;;;;;5057315;28;20501;-73
2022/08/21 06:54:26;;;;;;;1.33;0.55;;;21.80;93.90;;;;;;5061034;28;20035;-73
2022/08/21 06:56:52;;;;;;;1.38;0.60;;;22.20;93.50;;;;;;5059937;28;20049;-73
2022/08/21 06:59:17;;;;;;;1.15;0.40;;;22.60;93.80;;;;;;5049149;28;20068;-73
2022/08/21 07:01:43;;;;;;;2.30;0.52;;;23.70;93.70;;;;;;5060312;28;20060;-73
2022/08/21 07:04:09;;;;;;;1.25;0.60;;;24.30;91.80;;;;;;5056968;28;20045;-73
2022/08/21 07:06:35;;;;;;;1.27;0.52;;;26.00;91.00;;;;;;5051700;28;20033;-73
2022/08/21 07:09:01;;;;;;;1.00;0.47;;;27.60;88.80;;;;;;5057505;28;20074;-74
2022/08/21 07:11:27;;;;;;;0.95;0.50;;;28.50;85.80;;;;;;5061281;28;20040;-74
2022/08/21 07:13:54;;;;;;;1.83;0.93;;;29.70;84.30;;;;;;5055707;28;20035;-74
2022/08/21 07:16:21;;;;;;;1.13;0.50;;;30.00;85.00;;;;;;5064970;28;20032;-73
2022/08/21 07:18:47;;;;;;;2.17;0.77;;;29.30;82.00;;;;;;5063752;28;20056;-74
2022/08/21 07:21:12;;;;;;;1.17;0.45;;;28.60;81.60;;;;;;5050569;28;20075;-73
2022/08/21 07:23:42;;;;;;;1.15;0.43;;;29.10;84.40;;;;;;5060334;28;20056;-74
2022/08/21 07:26:08;;;;;;;0.82;0.45;;;28.60;82.30;;;;;;5051152;28;20071;-74
2022/08/21 07:28:34;;;;;;;0.98;0.40;;;29.10;80.80;;;;;;5056294;28;20034;-73
2022/08/21 07:31:01;;;;;;;1.52;0.68;;;29.80;81.50;;;;;;5032289;28;20045;-74
2022/08/21 07:33:30;;;;;;;1.30;0.47;;;30.30;80.40;;;;;;5056094;28;20429;-73
2022/08/21 07:35:56;;;;;;;2.05;0.85;;;29.40;80.20;;;;;;5061425;28;20038;-74
2022/08/21 07:38:22;;;;;;;1.77;0.40;;;29.60;80.30;;;;;;5058677;28;20024;-73
2022/08/21 07:40:50;;;;;;;1.05;0.40;;;30.00;81.10;;;;;;5047823;28;20099;-74
2022/08/21 07:43:18;;;;;;;2.17;0.45;;;27.40;81.80;;;;;;5051799;28;20028;-75
2022/08/21 07:45:45;;;;;;;1.30;0.47;;;25.50;85.10;;;;;;5058321;28;20032;-74
2022/08/21 07:48:11;;;;;;;0.63;0.20;;;24.20;88.00;;;;;;5053980;28;20056;-74
2022/08/21 07:50:37;;;;;;;0.65;0.25;;;23.40;88.30;;;;;;5045030;28;20624;-74
2022/08/21 07:53:03;;;;;;;0.40;0.22;;;23.20;90.50;;;;;;5066677;28;20034;-74
2022/08/21 07:55:29;;;;;;;0.60;0.30;;;23.20;91.50;;;;;;5051826;28;20144;-76
2022/08/21 07:57:55;;;;;;;0.80;0.30;;;23.10;90.60;;;;;;5055023;28;20119;-74
2022/08/21 08:00:24;;;;;;;0.43;0.30;;;23.20;90.50;;;;;;5052671;28;20104;-75
2022/08/21 08:02:51;;;;;;;0.60;0.20;;;23.00;90.70;;;;;;5051219;28;20777;-74
2022/08/21 08:05:20;;;;;;;0.93;0.40;;;23.10;90.90;;;;;;5051386;28;20648;-75
2022/08/21 08:07:45;;;;;;;2.88;0.75;;;22.90;90.90;;;;;;5046541;28;20051;-74
2022/08/21 08:10:11;;;;;;;0.25;0.20;;;23.10;91.90;;;;;;5055522;28;20486;-74
2022/08/21 08:12:39;;;;;;;1.38;0.28;;;23.40;92.60;;;;;;5037826;28;20421;-75
2022/08/21 08:15:08;;;;;;;1.10;0.40;;;23.40;91.70;;;;;;5047901;28;20152;-75
2022/08/21 08:17:33;;;;;;;1.17;0.40;;;23.10;91.50;;;;;;5046359;28;20037;-75
2022/08/21 08:20:02;;;;;;;0.75;0.40;;;23.20;90.70;;;;;;5064824;28;20066;-75
2022/08/21 08:22:28;;;;;;;0.82;0.35;;;23.40;90.90;;;;;;5062654;28;20131;-75
2022/08/21 08:24:54;;;;;;;0.90;0.25;;;23.60;91.10;;;;;;5058448;28;20094;-75
2022/08/21 08:27:21;;;;;;;1.52;0.57;;;23.50;90.30;;;;;;5064033;28;20024;-74
2022/08/21 08:29:47;;;;;;;2.47;0.60;;;23.50;90.70;;;;;;5064184;28;20466;-74
2022/08/21 08:32:13;;;;;;;0.70;0.35;;;23.60;90.90;;;;;;5060491;28;20040;-75
2022/08/21 08:34:39;;;;;;;0.98;0.68;;;23.50;90.50;;;;;;5053024;28;20017;-74
2022/08/21 08:37:08;;;;;;;1.00;0.30;;;23.50;90.50;;;;;;5056108;28;20038;-75
2022/08/21 08:39:34;;;;;;;3.10;0.50;;;25.40;86.90;;;;;;5051455;28;20484;-74
2022/08/21 08:42:13;;;;;;;1.92;0.55;;;27.50;85.60;;;;;;5054899;28;20111;-74
2022/08/21 08:44:41;;;;;;;0.93;0.43;;;27.90;85.20;;;;;;5051754;28;20029;-74
2022/08/21 08:47:08;;;;;;;0.98;0.43;;;28.30;81.10;;;;;;5051165;28;20148;-74
2022/08/21 08:49:49;;;;;;;0.52;0.32;;;29.20;83.10;;;;;;5049371;28;20029;-74
2022/08/21 08:52:27;;;;;;;0.40;0.20;;;28.80;82.70;;;;;;5054793;28;20042;-74
2022/08/21 08:55:26;;;;;;;1.85;0.30;;;28.70;83.70;;;;;;5054473;28;20025;-73
2022/08/21 08:57:54;;;;;;;1.02;0.32;;;28.80;82.90;;;;;;5042626;28;20052;-73
2022/08/21 09:00:22;;;;;;;0.68;0.40;;;29.00;81.10;;;;;;5041620;28;20107;-74
2022/08/21 09:02:59;;;;;;;1.08;0.40;;;28.60;80.70;;;;;;5035129;28;20028;-74
2022/08/21 09:05:26;;;;;;;1.05;0.50;;;28.00;81.10;;;;;;5038732;28;20040;-73
2022/08/21 09:08:10;;;;;;;1.35;0.30;;;28.30;82.80;;;;;;5043756;28;20033;-76
2022/08/21 09:10:54;;;;;;;1.05;0.50;;;28.10;84.80;;;;;;5038029;28;20047;-75
2022/08/21 09:13:35;;;;;;;0.68;0.30;;;27.40;82.40;;;;;;5039095;28;20029;-74
2022/08/21 09:16:23;;;;;;;2.05;0.38;;;27.10;85.00;;;;;;5041289;28;20032;-74
2022/08/21 09:18:48;;;;;;;0.30;0.20;;;26.50;83.20;;;;;;5038697;28;20348;-74
2022/08/21 09:21:23;;;;;;;1.08;0.40;;;26.10;84.20;;;;;;5043299;28;20036;-74
2022/08/21 09:23:55;;;;;;;2.20;0.40;;;26.30;86.40;;;;;;5042645;28;20024;-74
2022/08/21 09:26:26;;;;;;;1.83;0.55;;;26.10;85.90;;;;;;5036317;28;20090;-74
2022/08/21 09:28:55;;;;;;;3.92;0.50;;;25.80;86.30;;;;;;5044232;28;20120;-74
2022/08/21 09:31:28;;;;;;;1.75;0.40;;;26.10;86.70;;;;;;5044000;28;20041;-74
2022/08/21 09:33:59;;;;;;;0.50;0.30;;;26.30;86.20;;;;;;5042823;28;20053;-74
2022/08/21 09:36:47;;;;;;;0.55;0.22;;;26.50;84.80;;;;;;5044337;28;20037;-74
2022/08/21 09:39:22;;;;;;;0.80;0.30;;;26.60;85.40;;;;;;5043423;28;20045;-74
2022/08/21 09:42:00;;;;;;;0.80;0.20;;;26.70;87.00;;;;;;5036148;28;20025;-74
2022/08/21 09:44:29;;;;;;;1.23;0.50;;;26.80;84.70;;;;;;5037448;28;20044;-74
2022/08/21 09:46:55;;;;;;;0.73;0.32;;;26.80;87.50;;;;;;5037766;28;20040;-74
2022/08/21 09:49:32;;;;;;;0.98;0.40;;;26.40;85.90;;;;;;5042487;28;20044;-74
2022/08/21 09:51:59;;;;;;;0.50;0.17;;;26.40;84.60;;;;;;5045155;28;20029;-74
2022/08/21 09:54:34;;;;;;;0.82;0.40;;;26.50;82.40;;;;;;5045919;28;20032;-74
2022/08/21 10:00:17;;;;;;;1.25;0.40;;;26.90;84.30;;;;;;5068568;28;20110;-74
2022/08/21 10:02:43;;;;;;;1.00;0.20;;;26.80;83.70;;;;;;5065948;28;20094;-74
2022/08/21 10:05:24;;;;;;;0.68;0.30;;;26.80;85.80;;;;;;5067623;28;20507;-74
2022/08/21 10:07:50;;;;;;;3.60;0.57;;;26.80;84.70;;;;;;5066487;28;20032;-74
2022/08/21 10:10:30;;;;;;;0.60;0.28;;;27.00;85.20;;;;;;5067414;28;20040;-74
2022/08/21 10:13:07;;;;;;;0.43;0.30;;;27.10;83.50;;;;;;5063853;28;20676;-74
2022/08/21 10:15:57;;;;;;;0.98;0.40;;;27.20;83.60;;;;;;5068209;28;20033;-74
2022/08/21 10:18:29;;;;;;;0.95;0.47;;;27.10;83.10;;;;;;5063834;28;20028;-74
2022/08/21 10:21:30;;;;;;;0.82;0.38;;;27.20;82.80;;;;;;5067354;28;20032;-74
2022/08/21 10:24:27;;;;;;;0.90;0.40;;;27.40;82.80;;;;;;5052105;28;20479;-75
2022/08/21 10:27:17;;;;;;;1.15;0.40;;;27.60;84.10;;;;;;5054497;28;20032;-74
2022/08/21 10:29:46;;;;;;;1.85;0.30;;;27.60;83.50;;;;;;5066479;28;20033;-74
2022/08/21 10:32:51;;;;;;;0.68;0.30;;;27.60;81.30;;;;;;5064977;28;20028;-74
2022/08/21 10:35:31;;;;;;;;;;;27.40;79.30;;;;;;5049832;28;20052;-75
2022/08/21 10:38:06;;;;;;;0.73;0.40;;;27.70;80.40;;;;;;5067630;28;20358;-74
2022/08/21 10:41:03;;;;;;;2.63;0.35;;;27.70;81.10;;;;;;5066362;28;20029;-74
2022/08/21 10:43:41;;;;;;;1.10;0.40;;;27.70;83.00;;;;;;5046566;28;20044;-74
2022/08/21 10:46:12;;;;;;;2.70;0.82;;;27.90;82.90;;;;;;5065733;28;20041;-73
2022/08/21 10:48:54;;;;;;;1.15;0.70;;;27.90;81.50;;;;;;5061078;28;20082;-72
2022/08/21 10:51:42;;;;;;;33.75;19.40;;;28.20;80.90;;;;;;5064176;28;20079;-74
2022/08/21 10:54:17;;;;;;;110.95;60.95;;;28.20;82.00;;;;;;5047005;28;20048;-74
2022/08/21 10:56:45;;;;;;;23.67;13.32;;;28.20;79.70;;;;;;5051542;28;20047;-73
2022/08/21 10:59:46;;;;;;;4.13;2.22;;;28.00;80.50;;;;;;5062800;28;20639;-74
2022/08/21 11:02:21;;;;;;;0.75;0.20;;;28.30;80.20;;;;;;5021036;28;20053;-75
2022/08/21 11:04:59;;;;;;;2.05;0.70;;;28.20;76.70;;;;;;5056632;28;20040;-73
2022/08/21 11:07:35;;;;;;;0.50;0.32;;;28.30;79.80;;;;;;5056529;28;20041;-74
2022/08/21 11:10:09;;;;;;;2.00;0.40;;;28.40;78.30;;;;;;5036339;28;20428;-74
2022/08/21 11:12:48;;;;;;;0.73;0.30;;;28.60;79.90;;;;;;5051949;28;20051;-74
2022/08/21 11:15:29;;;;;;;2.38;0.43;;;28.90;81.10;;;;;;5066417;28;20108;-74
2022/08/21 11:18:26;;;;;;;0.22;0.10;;;29.00;79.80;;;;;;5062553;28;20037;-74
2022/08/21 11:21:33;;;;;;;8.95;6.00;;;29.10;80.30;;;;;;5065597;28;20049;-74
2022/08/21 11:24:03;;;;;;;1.23;0.30;;;29.10;81.50;;;;;;5066262;28;20036;-74
2022/08/21 11:26:47;;;;;;;0.95;0.20;;;29.10;77.70;;;;;;5067111;28;20024;-74
2022/08/21 11:29:19;;;;;;;1.25;0.60;;;29.00;77.00;;;;;;5066543;28;20123;-74
2022/08/21 11:32:33;;;;;;;0.90;0.40;;;28.90;74.20;;;;;;5064035;28;20044;-74
2022/08/21 11:35:20;;;;;;;1.13;0.40;;;29.00;77.60;;;;;;4963759;28;20043;-74
2022/08/21 11:37:59;;;;;;;2.38;0.40;;;29.30;77.40;;;;;;5065311;28;20032;-74
2022/08/21 11:40:41;;;;;;;0.65;0.28;;;29.50;75.40;;;;;;5066567;28;20094;-75
2022/08/21 11:43:23;;;;;;;3.78;1.08;;;29.50;74.40;;;;;;5056249;28;20040;-74
2022/08/21 11:45:59;;;;;;;4.20;1.48;;;29.60;75.40;;;;;;5049003;28;20112;-75
2022/08/21 11:49:10;;;;;;;5.85;1.75;;;29.50;71.80;;;;;;5062765;28;20036;-74
2022/08/21 11:52:08;;;;;;;1.08;0.75;;;29.30;69.60;;;;;;5039739;28;20491;-74
2022/08/21 11:54:43;;;;;;;6.78;3.53;;;29.20;68.70;;;;;;5012518;28;20044;-74
2022/08/21 11:57:20;;;;;;;2.45;0.90;;;29.20;70.70;;;;;;5067882;28;20131;-74
2022/08/21 11:59:55;;;;;;;8.63;4.60;;;29.30;70.70;;;;;;5068866;28;20042;-74
2022/08/21 12:02:27;;;;;;;2.00;0.93;;;29.50;69.70;;;;;;5052434;28;20039;-74
2022/08/21 12:05:04;;;;;;;0.80;0.30;;;29.80;72.50;;;;;;5049387;28;20028;-74
2022/08/21 12:07:29;;;;;;;1.48;0.40;;;29.70;71.00;;;;;;5064229;28;20032;-74
2022/08/21 12:09:57;;;;;;;0.95;0.55;;;29.80;70.10;;;;;;5068470;28;20047;-74
2022/08/21 12:12:29;;;;;;;0.60;0.20;;;30.00;72.20;;;;;;5065875;28;20039;-74
2022/08/21 12:15:16;;;;;;;0.43;0.20;;;30.00;69.20;;;;;;5067971;28;20028;-74
2022/08/21 12:17:57;;;;;;;0.90;0.35;;;30.10;70.50;;;;;;5067660;28;20091;-74
2022/08/21 12:20:29;;;;;;;0.32;0.20;;;30.00;70.60;;;;;;5068074;28;20556;-75
2022/08/21 12:23:17;;;;;;;0.95;0.30;;;30.00;69.90;;;;;;5066668;28;20526;-74
2022/08/21 12:26:08;;;;;;;2.20;0.30;;;30.20;72.70;;;;;;5068204;28;20037;-74
2022/08/21 12:28:34;;;;;;;1.08;0.35;;;30.20;70.50;;;;;;5031712;28;20045;-74
2022/08/21 12:31:00;;;;;;;0.75;0.20;;;30.20;71.20;;;;;;5048238;28;20109;-74
2022/08/21 12:33:37;;;;;;;0.80;0.45;;;30.20;70.80;;;;;;5056756;28;20076;-74
2022/08/21 12:36:12;;;;;;;0.60;0.30;;;30.20;69.50;;;;;;5067748;28;20036;-74
2022/08/21 12:38:41;;;;;;;1.33;0.50;;;30.40;70.90;;;;;;5068389;28;20032;-74
2022/08/21 12:41:16;;;;;;;0.50;0.30;;;30.30;72.80;;;;;;5049878;28;20235;-74
2022/08/21 12:43:46;;;;;;;0.45;0.20;;;30.30;70.20;;;;;;5065793;28;20033;-74
2022/08/21 12:46:18;;;;;;;0.70;0.25;;;30.30;72.20;;;;;;5067287;28;20028;-74
2022/08/21 12:48:51;;;;;;;1.13;0.75;;;30.50;71.90;;;;;;5067689;28;20097;-75
2022/08/21 12:51:23;;;;;;;0.43;0.20;;;30.50;69.60;;;;;;5066495;28;20041;-74
2022/08/21 12:53:51;;;;;;;0.32;0.30;;;30.20;68.80;;;;;;5067294;28;20048;-74
2022/08/21 12:56:29;;;;;;;0.70;0.20;;;30.40;69.60;;;;;;5067964;28;20050;-74
2022/08/21 12:58:59;;;;;;;0.93;0.35;;;30.40;69.80;;;;;;5067022;28;20032;-75
2022/08/21 13:01:34;;;;;;;0.57;0.30;;;30.70;71.40;;;;;;5064720;28;20498;-75
2022/08/21 13:04:07;;;;;;;2.22;0.45;;;30.30;68.20;;;;;;5067223;28;20043;-74
2022/08/21 13:06:39;;;;;;;0.35;0.20;;;30.30;68.20;;;;;;5067418;28;20029;-74
2022/08/21 13:09:11;;;;;;;1.27;0.25;;;30.70;68.40;;;;;;5067204;28;20029;-74